createdAt,value
2018-09-29T00:02:08.025Z,9.40
2018-09-29T00:04:36.631Z,7.53
2018-09-29T00:07:05.743Z,8.77
2018-09-29T00:09:34.280Z,8.17
2018-09-29T00:12:02.804Z,8.57
2018-09-29T00:14:31.451Z,8.73
2018-09-29T00:16:59.648Z,8.17
2018-09-29T00:19:28.231Z,8.07
2018-09-29T00:21:56.780Z,8.07
2018-09-29T00:24:25.331Z,6.53
2018-09-29T00:26:53.856Z,5.90
2018-09-29T00:29:22.407Z,8.07
2018-09-29T00:31:51.016Z,7.00
2018-09-29T00:34:19.583Z,7.60
2018-09-29T00:36:48.115Z,8.27
2018-09-29T00:39:16.645Z,5.57
2018-09-29T00:41:45.190Z,10.90
2018-09-29T00:44:13.858Z,7.70
2018-09-29T00:46:42.406Z,7.40
2018-09-29T00:49:10.968Z,8.63
2018-09-29T00:51:39.855Z,6.47
2018-09-29T00:54:08.390Z,5.60
2018-09-29T00:56:36.938Z,8.80
2018-09-29T00:59:05.495Z,8.07
2018-09-29T01:01:34.028Z,6.47
2018-09-29T01:04:02.650Z,5.43
2018-09-29T01:06:31.223Z,5.27
2018-09-29T01:08:59.827Z,5.50
2018-09-29T01:11:28.382Z,7.53
2018-09-29T01:13:56.946Z,4.60
2018-09-29T01:16:25.535Z,6.70
2018-09-29T01:18:54.161Z,6.37
2018-09-29T01:21:22.735Z,8.20
2018-09-29T01:23:51.282Z,6.77
2018-09-29T01:26:19.813Z,5.90
2018-09-29T01:28:48.362Z,6.27
2018-09-29T01:31:16.921Z,5.90
2018-09-29T01:33:45.543Z,6.20
2018-09-29T01:36:14.131Z,6.50
2018-09-29T01:38:42.716Z,4.87
2018-09-29T01:41:10.925Z,4.60
2018-09-29T01:43:39.460Z,4.60
2018-09-29T01:46:08.043Z,6.77
2018-09-29T01:48:36.615Z,5.73
2018-09-29T01:51:05.837Z,7.33
2018-09-29T01:53:34.375Z,6.17
2018-09-29T01:56:02.938Z,5.73
2018-09-29T01:58:31.533Z,7.07
2018-09-29T02:01:00.147Z,7.20
2018-09-29T02:03:28.712Z,5.17
2018-09-29T02:05:57.248Z,7.07
2018-09-29T02:08:25.804Z,5.83
2018-09-29T02:10:54.363Z,5.07
2018-09-29T02:13:22.968Z,5.87
2018-09-29T02:15:51.562Z,4.50
2018-09-29T02:18:20.111Z,5.97
2018-09-29T02:21:19.059Z,5.10
2018-09-29T02:23:48.137Z,5.60
2018-09-29T02:26:17.623Z,6.50
2018-09-29T02:28:46.611Z,4.50
2018-09-29T02:31:15.289Z,6.23
2018-09-29T02:33:43.843Z,3.60
2018-09-29T02:36:12.617Z,4.33
2018-09-29T02:38:40.825Z,4.77
2018-09-29T02:41:09.442Z,4.47
2018-09-29T02:43:37.975Z,4.83
2018-09-29T02:46:06.530Z,4.67
2018-09-29T02:48:35.062Z,5.70
2018-09-29T02:51:04.005Z,6.50
2018-09-29T02:53:32.610Z,5.93
2018-09-29T02:56:01.162Z,4.47
2018-09-29T02:58:29.725Z,5.53
2018-09-29T03:00:58.296Z,4.70
2018-09-29T03:03:26.830Z,4.07
2018-09-29T03:05:55.431Z,4.50
2018-09-29T03:08:23.991Z,4.37
2018-09-29T03:10:52.531Z,4.87
2018-09-29T03:13:21.164Z,5.33
2018-09-29T03:15:50.131Z,3.93
2018-09-29T03:18:18.723Z,5.07
2018-09-29T03:20:47.268Z,6.03
2018-09-29T03:23:15.863Z,4.33
2018-09-29T03:25:44.403Z,3.57
2018-09-29T03:28:12.992Z,5.10
2018-09-29T03:30:41.599Z,5.13
2018-09-29T03:33:10.151Z,4.77
2018-09-29T03:35:38.732Z,5.00
2018-09-29T03:38:07.576Z,4.13
2018-09-29T03:40:36.115Z,4.47
2018-09-29T03:43:04.748Z,4.07
2018-09-29T03:45:33.292Z,4.83
2018-09-29T03:48:01.841Z,3.87
2018-09-29T03:50:30.400Z,5.00
2018-09-29T03:52:58.943Z,5.17
2018-09-29T03:55:27.578Z,3.83
2018-09-29T03:57:56.202Z,5.23
2018-09-29T04:00:25.131Z,4.30
2018-09-29T04:02:53.684Z,4.77
2018-09-29T04:05:22.235Z,3.50
2018-09-29T04:07:50.891Z,3.77
2018-09-29T04:10:19.419Z,4.43
2018-09-29T04:12:48.012Z,3.20
2018-09-29T04:15:16.606Z,3.80
2018-09-29T04:17:45.202Z,4.33
2018-09-29T04:20:13.764Z,4.07
2018-09-29T04:22:42.325Z,3.33
2018-09-29T04:25:10.937Z,3.57
2018-09-29T04:27:39.468Z,2.83
2018-09-29T04:30:08.024Z,3.53
2018-09-29T04:32:36.551Z,4.03
2018-09-29T04:35:05.225Z,4.60
2018-09-29T04:37:33.806Z,3.07
2018-09-29T04:40:03.104Z,3.93
2018-09-29T04:42:31.655Z,3.50
2018-09-29T04:45:00.247Z,2.77
2018-09-29T04:47:28.504Z,3.60
2018-09-29T04:49:57.071Z,4.13
2018-09-29T04:52:25.712Z,4.20
2018-09-29T04:54:54.265Z,2.97
2018-09-29T04:57:22.822Z,2.90
2018-09-29T04:59:51.363Z,2.93
2018-09-29T05:02:19.943Z,3.63
2018-09-29T05:04:48.603Z,4.47
2018-09-29T05:07:17.159Z,5.43
2018-09-29T05:09:45.698Z,4.13
2018-09-29T05:12:14.279Z,5.07
2018-09-29T05:14:42.823Z,7.77
2018-09-29T05:17:11.472Z,9.00
2018-09-29T05:19:40.063Z,6.63
2018-09-29T05:22:08.615Z,7.63
2018-09-29T05:24:37.235Z,7.20
2018-09-29T05:27:05.974Z,8.47
2018-09-29T05:29:34.534Z,7.80
2018-09-29T05:32:03.096Z,6.47
2018-09-29T05:34:31.713Z,9.37
2018-09-29T05:37:00.267Z,6.90
2018-09-29T05:39:28.810Z,6.93
2018-09-29T05:41:57.391Z,14.43
2018-09-29T05:44:25.947Z,3.67
2018-09-29T05:46:54.508Z,9.97
2018-09-29T05:49:23.035Z,4.77
2018-09-29T05:51:51.679Z,8.20
2018-09-29T05:54:20.216Z,4.37
2018-09-29T05:56:48.936Z,2.33
2018-09-29T05:59:18.123Z,8.47
2018-09-29T06:01:46.651Z,6.43
2018-09-29T06:04:15.253Z,5.77
2018-09-29T06:06:43.867Z,4.93
2018-09-29T06:09:12.545Z,5.37
2018-09-29T06:11:41.227Z,5.57
2018-09-29T06:14:09.756Z,10.07
2018-09-29T06:16:38.296Z,9.03
2018-09-29T06:19:07.196Z,7.63
2018-09-29T06:21:35.883Z,11.10
2018-09-29T06:24:04.495Z,11.63
2018-09-29T06:26:33.095Z,14.63
2018-09-29T06:29:01.634Z,12.93
2018-09-29T06:31:30.194Z,8.40
2018-09-29T06:33:58.724Z,11.47
2018-09-29T06:36:27.287Z,11.23
2018-09-29T06:38:55.819Z,9.07
2018-09-29T06:41:24.328Z,8.47
2018-09-29T06:43:52.924Z,10.97
2018-09-29T06:46:21.478Z,6.67
2018-09-29T06:48:50.023Z,8.80
2018-09-29T06:51:18.578Z,9.23
2018-09-29T06:53:47.104Z,9.73
2018-09-29T06:56:15.643Z,8.57
2018-09-29T06:58:44.296Z,8.60
2018-09-29T07:01:12.851Z,8.40
2018-09-29T07:03:41.481Z,6.87
2018-09-29T07:06:10.062Z,8.63
2018-09-29T07:08:38.609Z,8.70
2018-09-29T07:11:07.423Z,11.20
2018-09-29T07:13:35.971Z,8.10
2018-09-29T07:16:04.548Z,8.20
2018-09-29T07:18:33.152Z,10.07
2018-09-29T07:21:01.780Z,10.33
2018-09-29T07:23:30.330Z,7.07
2018-09-29T07:25:58.945Z,9.73
2018-09-29T07:28:27.531Z,7.93
2018-09-29T07:30:56.082Z,9.30
2018-09-29T07:33:25.052Z,9.67
2018-09-29T07:35:53.625Z,12.07
2018-09-29T07:38:22.192Z,7.70
2018-09-29T07:40:50.746Z,11.40
2018-09-29T07:43:19.377Z,10.17
2018-09-29T07:45:47.966Z,9.50
2018-09-29T07:48:16.489Z,11.23
2018-09-29T07:50:45.052Z,14.70
2018-09-29T07:53:13.620Z,11.90
2018-09-29T07:55:42.175Z,10.47
2018-09-29T07:58:10.733Z,9.83
2018-09-29T08:00:39.420Z,12.63
2018-09-29T08:03:08.007Z,11.60
2018-09-29T08:05:36.529Z,10.63
2018-09-29T08:08:05.675Z,9.60
2018-09-29T08:10:34.255Z,9.10
2018-09-29T08:13:02.975Z,20.37
2018-09-29T08:15:31.588Z,14.30
2018-09-29T08:18:00.125Z,11.33
2018-09-29T08:20:28.730Z,12.37
2018-09-29T08:22:57.329Z,14.00
2018-09-29T08:25:25.943Z,12.83
2018-09-29T08:27:54.487Z,15.37
2018-09-29T08:30:23.088Z,19.97
2018-09-29T08:32:51.676Z,11.57
2018-09-29T08:35:20.223Z,8.43
2018-09-29T08:37:48.833Z,13.10
2018-09-29T08:40:17.387Z,6.23
2018-09-29T08:42:45.936Z,10.10
2018-09-29T08:45:14.511Z,9.27
2018-09-29T08:47:43.071Z,8.33
2018-09-29T08:50:11.768Z,10.53
2018-09-29T08:52:42.820Z,11.53
2018-09-29T08:55:11.412Z,9.73
2018-09-29T08:57:39.964Z,11.20
2018-09-29T09:00:08.633Z,9.83
2018-09-29T09:02:41.171Z,14.53
2018-09-29T09:05:09.785Z,8.60
2018-09-29T09:07:38.400Z,16.50
2018-09-29T09:10:06.962Z,17.10
2018-09-29T09:12:35.535Z,22.73
2018-09-29T09:15:04.192Z,11.03
2018-09-29T09:17:32.751Z,12.57
2018-09-29T09:20:01.367Z,15.70
2018-09-29T09:22:29.947Z,14.63
2018-09-29T09:24:58.508Z,14.90
2018-09-29T09:27:27.088Z,15.33
2018-09-29T09:29:55.707Z,16.83
2018-09-29T09:32:24.351Z,14.20
2018-09-29T09:34:52.978Z,15.20
2018-09-29T09:37:21.559Z,10.40
2018-09-29T09:39:50.351Z,14.43
2018-09-29T09:42:18.928Z,11.87
2018-09-29T09:44:47.912Z,10.00
2018-09-29T09:47:16.457Z,14.53
2018-09-29T09:49:45.109Z,9.90
2018-09-29T09:52:13.663Z,9.60
2018-09-29T09:54:42.221Z,12.97
2018-09-29T09:57:10.753Z,15.27
2018-09-29T09:59:39.300Z,9.70
2018-09-29T10:02:13.117Z,10.63
2018-09-29T10:04:44.964Z,12.43
2018-09-29T10:07:13.695Z,9.63
2018-09-29T10:09:42.243Z,10.50
2018-09-29T10:12:10.886Z,9.00
2018-09-29T10:14:39.475Z,11.07
2018-09-29T10:17:08.408Z,10.17
2018-09-29T10:19:37.006Z,15.83
2018-09-29T10:22:05.688Z,8.00
2018-09-29T10:24:34.338Z,10.83
2018-09-29T10:27:02.900Z,7.43
2018-09-29T10:29:31.438Z,9.13
2018-09-29T10:32:00.031Z,8.97
2018-09-29T10:34:28.678Z,8.43
2018-09-29T10:36:57.208Z,8.37
2018-09-29T10:39:25.754Z,9.87
2018-09-29T10:41:54.299Z,10.23
2018-09-29T10:44:22.864Z,13.13
2018-09-29T10:46:51.527Z,7.93
2018-09-29T10:49:20.116Z,10.27
2018-09-29T10:51:48.751Z,8.07
2018-09-29T10:54:17.331Z,7.87
2018-09-29T10:56:45.867Z,6.73
2018-09-29T10:59:14.506Z,11.37
2018-09-29T11:01:43.409Z,11.70
2018-09-29T11:04:12.051Z,9.53
2018-09-29T11:06:44.336Z,5.90
2018-09-29T11:09:13.358Z,13.00
2018-09-29T11:11:41.945Z,10.93
2018-09-29T11:14:10.765Z,16.43
2018-09-29T11:16:39.565Z,18.23
2018-09-29T11:19:08.373Z,9.63
2018-09-29T11:21:37.013Z,10.93
2018-09-29T11:24:05.673Z,9.03
2018-09-29T11:26:35.607Z,12.90
2018-09-29T11:29:10.083Z,29.87
2018-09-29T11:31:38.759Z,13.70
2018-09-29T11:34:07.667Z,11.30
2018-09-29T11:36:37.098Z,8.83
2018-09-29T11:39:10.503Z,12.83
2018-09-29T11:41:40.971Z,9.33
2018-09-29T11:44:10.948Z,12.23
2018-09-29T11:46:39.864Z,12.57
2018-09-29T11:49:10.785Z,14.70
2018-09-29T11:51:39.476Z,15.17
2018-09-29T11:54:08.077Z,12.57
2018-09-29T11:56:36.630Z,8.70
2018-09-29T11:59:05.222Z,11.90
2018-09-29T12:01:33.834Z,12.17
2018-09-29T12:04:02.371Z,11.03
2018-09-29T12:06:30.953Z,9.50
2018-09-29T12:08:59.509Z,12.87
2018-09-29T12:11:28.104Z,9.93
2018-09-29T12:13:56.777Z,12.83
2018-09-29T12:16:25.291Z,11.83
2018-09-29T12:18:53.835Z,7.57
2018-09-29T12:21:22.439Z,10.83
2018-09-29T12:23:51.034Z,12.40
2018-09-29T12:26:19.587Z,10.60
2018-09-29T12:28:48.918Z,14.17
2018-09-29T12:31:17.600Z,10.17
2018-09-29T12:33:46.423Z,13.07
2018-09-29T12:36:15.072Z,11.00
2018-09-29T12:38:43.745Z,14.07
2018-09-29T12:41:12.392Z,12.53
2018-09-29T12:43:40.985Z,10.90
2018-09-29T12:46:09.531Z,12.97
2018-09-29T12:48:38.121Z,13.00
2018-09-29T12:51:07.638Z,11.10
2018-09-29T12:53:37.043Z,17.90
2018-09-29T12:56:05.648Z,8.37
2018-09-29T12:58:34.240Z,16.87
2018-09-29T13:01:02.489Z,10.30
2018-09-29T13:03:31.084Z,23.00
2018-09-29T13:05:59.654Z,26.70
2018-09-29T13:08:28.272Z,13.50
2018-09-29T13:10:56.879Z,13.43
2018-09-29T13:13:25.444Z,12.27
2018-09-29T13:15:54.081Z,14.37
2018-09-29T13:18:22.654Z,8.90
2018-09-29T13:20:51.268Z,11.43
2018-09-29T13:23:19.911Z,14.87
2018-09-29T13:25:48.480Z,15.57
2018-09-29T13:28:17.332Z,12.13
2018-09-29T13:30:45.916Z,11.20
2018-09-29T13:33:14.507Z,11.80
2018-09-29T13:35:43.075Z,7.93
2018-09-29T13:38:11.726Z,13.10
2018-09-29T13:40:40.300Z,12.13
2018-09-29T13:43:08.952Z,10.20
2018-09-29T13:45:37.504Z,11.43
2018-09-29T13:48:06.167Z,9.40
2018-09-29T13:50:34.743Z,9.40
2018-09-29T13:53:03.313Z,15.73
2018-09-29T13:55:31.959Z,13.93
2018-09-29T13:58:00.577Z,10.43
2018-09-29T14:00:29.171Z,11.03
2018-09-29T14:02:57.717Z,7.50
2018-09-29T14:05:26.312Z,9.83
2018-09-29T14:07:54.864Z,8.97
2018-09-29T14:10:23.471Z,11.03
2018-09-29T14:12:52.236Z,7.10
2018-09-29T14:15:20.794Z,7.00
2018-09-29T14:17:49.444Z,9.40
2018-09-29T14:20:18.695Z,9.73
2018-09-29T14:22:47.368Z,4.97
2018-09-29T14:25:15.947Z,9.20
2018-09-29T14:27:44.514Z,8.63
2018-09-29T14:30:13.244Z,7.80
2018-09-29T14:32:41.754Z,5.13
2018-09-29T14:35:10.423Z,6.50
2018-09-29T14:37:39.024Z,4.03
2018-09-29T14:40:07.597Z,9.17
2018-09-29T14:42:36.147Z,5.27
2018-09-29T14:45:04.848Z,12.00
2018-09-29T14:47:33.465Z,3.80
2018-09-29T14:50:02.112Z,7.83
2018-09-29T14:52:30.641Z,5.57
2018-09-29T14:54:59.375Z,7.40
2018-09-29T14:57:27.959Z,6.00
2018-09-29T14:59:56.964Z,9.37
2018-09-29T15:02:25.584Z,8.40
2018-09-29T15:04:54.157Z,7.50
2018-09-29T15:07:22.738Z,11.50
2018-09-29T15:09:50.977Z,15.23
2018-09-29T15:12:20.570Z,13.20
2018-09-29T15:14:49.140Z,41.23
2018-09-29T15:17:17.725Z,57.43
2018-09-29T15:19:46.335Z,40.03
2018-09-29T15:22:14.934Z,12.80
2018-09-29T15:24:43.513Z,7.60
2018-09-29T15:27:12.107Z,16.23
2018-09-29T15:29:40.687Z,8.90
2018-09-29T15:32:09.319Z,12.70
2018-09-29T15:34:37.871Z,15.70
2018-09-29T15:37:06.451Z,8.47
2018-09-29T15:39:34.981Z,8.23
2018-09-29T15:42:03.602Z,10.50
2018-09-29T15:44:32.131Z,6.33
2018-09-29T15:47:01.023Z,8.30
2018-09-29T15:49:29.590Z,6.47
2018-09-29T15:51:58.168Z,8.70
2018-09-29T15:54:26.863Z,6.87
2018-09-29T15:56:55.476Z,9.67
2018-09-29T15:59:24.226Z,3.83
2018-09-29T16:01:52.827Z,4.07
2018-09-29T16:04:21.349Z,18.70
2018-09-29T16:06:50.018Z,9.60
2018-09-29T16:09:18.626Z,4.37
2018-09-29T16:11:47.607Z,8.20
2018-09-29T16:14:16.518Z,10.20
2018-09-29T16:16:45.062Z,5.87
2018-09-29T16:19:13.738Z,4.80
2018-09-29T16:21:42.433Z,4.97
2018-09-29T16:24:11.112Z,4.40
2018-09-29T16:26:39.915Z,4.77
2018-09-29T16:29:08.593Z,4.97
2018-09-29T16:31:37.222Z,4.67
2018-09-29T16:34:05.827Z,4.87
2018-09-29T16:36:34.375Z,7.83
2018-09-29T16:39:02.967Z,9.37
2018-09-29T16:41:31.513Z,6.07
2018-09-29T16:44:00.072Z,5.43
2018-09-29T16:46:28.667Z,11.43
2018-09-29T16:48:57.317Z,3.77
2018-09-29T16:51:25.903Z,6.93
2018-09-29T16:53:54.490Z,7.67
2018-09-29T16:56:23.591Z,10.27
2018-09-29T16:58:52.271Z,15.60
2018-09-29T17:01:22.087Z,29.40
2018-09-29T17:03:50.740Z,23.13
2018-09-29T17:06:19.269Z,26.93
2018-09-29T17:08:47.820Z,32.70
2018-09-29T17:11:16.475Z,27.30
2018-09-29T17:13:45.064Z,28.67
2018-09-29T17:16:14.168Z,27.83
2018-09-29T17:18:42.740Z,37.00
2018-09-29T17:21:11.339Z,43.40
2018-09-29T17:23:39.914Z,30.80
2018-09-29T17:26:08.606Z,43.10
2018-09-29T17:28:37.189Z,32.50
2018-09-29T17:31:05.745Z,45.77
2018-09-29T17:33:34.326Z,53.30
2018-09-29T17:36:02.924Z,21.83
2018-09-29T17:38:31.504Z,27.37
2018-09-29T17:41:00.095Z,19.23
2018-09-29T17:43:29.546Z,19.00
2018-09-29T17:45:58.199Z,14.95
2018-09-29T17:48:26.762Z,16.60
2018-09-29T17:50:55.344Z,17.60
2018-09-29T17:53:23.912Z,17.50
2018-09-29T17:55:52.517Z,15.77
2018-09-29T17:58:21.096Z,19.47
2018-09-29T18:00:49.775Z,31.15
2018-09-29T18:03:18.344Z,26.62
2018-09-29T18:05:46.933Z,18.90
2018-09-29T18:08:15.555Z,22.07
2018-09-29T18:10:44.261Z,17.40
2018-09-29T18:13:12.858Z,17.67
2018-09-29T18:15:41.498Z,12.43
2018-09-29T18:18:10.069Z,14.30
2018-09-29T18:20:38.647Z,16.52
2018-09-29T18:23:07.330Z,15.05
2018-09-29T18:25:35.913Z,15.88
2018-09-29T18:28:04.623Z,13.30
2018-09-29T18:30:33.171Z,15.72
2018-09-29T18:33:01.738Z,13.10
2018-09-29T18:35:30.331Z,16.45
2018-09-29T18:37:59.025Z,14.30
2018-09-29T18:40:27.667Z,10.18
2018-09-29T18:42:56.264Z,13.60
2018-09-29T18:45:24.843Z,13.88
2018-09-29T18:47:53.416Z,23.38
2018-09-29T18:50:22.008Z,10.70
2018-09-29T18:52:50.551Z,19.15
2018-09-29T18:55:19.142Z,17.48
2018-09-29T18:57:47.739Z,19.65
2018-09-29T19:00:16.356Z,14.57
2018-09-29T19:02:44.927Z,11.15
2018-09-29T19:05:13.226Z,16.00
2018-09-29T19:07:41.872Z,12.43
2018-09-29T19:10:10.450Z,15.58
2018-09-29T19:12:39.104Z,16.32
2018-09-29T19:15:07.646Z,16.62
2018-09-29T19:17:36.203Z,9.73
2018-09-29T19:20:04.837Z,19.02
2018-09-29T19:22:33.436Z,17.52
2018-09-29T19:25:02.036Z,19.02
2018-09-29T19:27:30.599Z,10.38
2018-09-29T19:29:59.214Z,8.05
2018-09-29T19:32:27.832Z,10.95
2018-09-29T19:34:56.445Z,9.48
2018-09-29T19:37:24.990Z,16.97
2018-09-29T19:39:53.516Z,12.53
2018-09-29T19:42:22.085Z,13.35
2018-09-29T19:44:50.660Z,13.10
2018-09-29T19:47:19.248Z,11.90
2018-09-29T19:49:47.992Z,8.78
2018-09-29T19:52:16.935Z,8.73
2018-09-29T19:54:45.520Z,12.15
2018-09-29T19:57:14.091Z,9.53
2018-09-29T19:59:42.663Z,7.72
2018-09-29T20:02:11.369Z,7.92
2018-09-29T20:04:39.999Z,7.08
2018-09-29T20:07:08.576Z,14.23
2018-09-29T20:09:37.175Z,11.25
2018-09-29T20:12:05.705Z,7.30
2018-09-29T20:14:34.685Z,8.05
2018-09-29T20:17:03.214Z,8.68
2018-09-29T20:19:31.786Z,11.57
2018-09-29T20:22:00.453Z,8.60
2018-09-29T20:24:29.126Z,11.48
2018-09-29T20:26:57.637Z,9.05
2018-09-29T20:29:26.351Z,10.30
2018-09-29T20:31:54.912Z,13.53
2018-09-29T20:34:23.528Z,10.85
2018-09-29T20:36:52.151Z,10.60
2018-09-29T20:39:21.482Z,6.67
2018-09-29T20:41:50.053Z,12.15
2018-09-29T20:44:18.713Z,7.45
2018-09-29T20:46:47.884Z,9.73
2018-09-29T20:49:16.847Z,9.03
2018-09-29T20:51:45.791Z,11.75
2018-09-29T20:54:14.456Z,9.15
2018-09-29T20:56:43.097Z,5.25
2018-09-29T20:59:11.636Z,10.40
2018-09-29T21:01:40.342Z,6.73
2018-09-29T21:04:08.872Z,12.53
2018-09-29T21:06:37.436Z,13.55
2018-09-29T21:09:07.697Z,9.05
2018-09-29T21:11:36.397Z,9.55
2018-09-29T21:14:04.938Z,7.00
2018-09-29T21:16:33.495Z,7.03
2018-09-29T21:19:02.095Z,6.42
2018-09-29T21:21:30.657Z,7.55
2018-09-29T21:23:59.200Z,6.92
2018-09-29T21:26:27.776Z,8.25
2018-09-29T21:28:56.344Z,7.72
2018-09-29T21:31:24.970Z,5.50
2018-09-29T21:33:53.519Z,9.18
2018-09-29T21:36:22.644Z,10.93
2018-09-29T21:38:51.206Z,11.03
2018-09-29T21:41:19.813Z,9.55
2018-09-29T21:43:48.417Z,8.45
2018-09-29T21:46:17.046Z,7.33
2018-09-29T21:48:45.656Z,14.95
2018-09-29T21:51:14.263Z,9.58
2018-09-29T21:53:42.875Z,5.65
2018-09-29T21:56:11.525Z,6.55
2018-09-29T21:58:40.133Z,8.37
2018-09-29T22:01:14.156Z,7.62
2018-09-29T22:03:42.791Z,5.73
2018-09-29T22:06:11.359Z,7.27
2018-09-29T22:08:39.929Z,6.73
2018-09-29T22:11:08.592Z,8.50
2018-09-29T22:13:37.143Z,8.00
2018-09-29T22:16:05.724Z,9.30
2018-09-29T22:18:34.326Z,10.17
2018-09-29T22:21:02.922Z,7.50
2018-09-29T22:23:31.463Z,8.13
2018-09-29T22:26:00.408Z,6.77
2018-09-29T22:28:28.950Z,9.53
2018-09-29T22:30:57.543Z,8.07
2018-09-29T22:33:26.080Z,6.67
2018-09-29T22:35:54.646Z,8.77
2018-09-29T22:38:24.018Z,7.00
2018-09-29T22:40:52.558Z,8.37
2018-09-29T22:43:21.139Z,7.23
2018-09-29T22:45:49.718Z,6.93
2018-09-29T22:48:18.303Z,10.83
2018-09-29T22:50:46.895Z,7.43
2018-09-29T22:53:15.477Z,5.87
2018-09-29T22:55:44.051Z,9.40
2018-09-29T22:58:12.645Z,7.87
2018-09-29T23:00:41.226Z,8.63
2018-09-29T23:03:09.783Z,6.83
2018-09-29T23:05:38.372Z,6.93
2018-09-29T23:08:07.110Z,5.73
2018-09-29T23:10:35.715Z,7.63
2018-09-29T23:13:04.256Z,9.27
2018-09-29T23:15:32.821Z,7.27
2018-09-29T23:18:01.430Z,5.97
2018-09-29T23:20:30.001Z,7.47
2018-09-29T23:22:58.576Z,10.37
2018-09-29T23:25:27.162Z,7.37
2018-09-29T23:27:55.770Z,10.30
2018-09-29T23:30:24.328Z,5.63
2018-09-29T23:32:52.979Z,7.57
2018-09-29T23:35:21.533Z,5.70
2018-09-29T23:37:50.137Z,7.30
2018-09-29T23:40:18.695Z,7.43
2018-09-29T23:42:47.289Z,6.37
2018-09-29T23:45:15.825Z,7.20
2018-09-29T23:47:44.423Z,8.97
2018-09-29T23:50:12.678Z,5.50
2018-09-29T23:52:41.382Z,6.37
2018-09-29T23:55:10.019Z,5.63
2018-09-29T23:57:38.590Z,5.93
